BCS167 EDDK-EDDP
Flight info
| Callsign | BCS167 |
|---|---|
| Flight time | 0h 45m |
| Altitude | 23000 |
| Route | PODIP1R/31R PODIP Y867 PELUN DCT ERSET N858 MAXOT T212 LASTO T956 GOXLI GOXLI1V |
| Aircraft | B738/M-SDE2E3FGHIRWXY/LB1 |
Departure
| Time | 2026-04-24 19:02 |
|---|---|
| Airport | Cologne Bonn Airport (EDDK) |
Arrival
| Time | 2026-04-24 19:47 |
|---|---|
| Airport | Leipzig/Halle Airport (EDDP) |
| Time | Latitude | Longitude | Altitude | Speed | Heading |
|---|---|---|---|---|---|
| 2026-04-24 18:54 | 50.87749 | 7.12735 | 231 ft | 7 kts | 328° |
| 2026-04-24 18:55 | 50.87787 | 7.12767 | 232 ft | 12 kts | 81° |
| 2026-04-24 18:55 | 50.87733 | 7.12907 | 232 ft | 16 kts | 139° |
| 2026-04-24 18:55 | 50.87653 | 7.13022 | 232 ft | 15 kts | 138° |
| 2026-04-24 18:56 | 50.87575 | 7.13133 | 232 ft | 15 kts | 138° |
| 2026-04-24 18:56 | 50.87502 | 7.13240 | 232 ft | 14 kts | 137° |
| 2026-04-24 18:56 | 50.87417 | 7.13364 | 231 ft | 20 kts | 137° |
| 2026-04-24 18:56 | 50.87308 | 7.13522 | 233 ft | 21 kts | 137° |
| 2026-04-24 18:57 | 50.87200 | 7.13678 | 237 ft | 19 kts | 137° |
| 2026-04-24 18:57 | 50.87125 | 7.13788 | 240 ft | 10 kts | 137° |
| 2026-04-24 18:57 | 50.87075 | 7.13860 | 242 ft | 10 kts | 137° |
| 2026-04-24 18:57 | 50.87028 | 7.13929 | 244 ft | 9 kts | 137° |
| 2026-04-24 18:58 | 50.86963 | 7.14023 | 250 ft | 16 kts | 137° |
| 2026-04-24 18:58 | 50.86858 | 7.14174 | 254 ft | 25 kts | 137° |
| 2026-04-24 18:58 | 50.86732 | 7.14356 | 260 ft | 20 kts | 138° |
| 2026-04-24 18:58 | 50.86659 | 7.14457 | 262 ft | 7 kts | 140° |
| 2026-04-24 18:59 | 50.86612 | 7.14485 | 262 ft | 8 kts | 189° |
| 2026-04-24 18:59 | 50.86519 | 7.14463 | 264 ft | 21 kts | 164° |
| 2026-04-24 18:59 | 50.86392 | 7.14632 | 272 ft | 24 kts | 137° |
| 2026-04-24 18:59 | 50.86272 | 7.14809 | 278 ft | 23 kts | 137° |
| 2026-04-24 19:00 | 50.86158 | 7.14975 | 284 ft | 22 kts | 137° |
| 2026-04-24 19:00 | 50.86070 | 7.15105 | 287 ft | 13 kts | 136° |
| 2026-04-24 19:00 | 50.86050 | 7.15240 | 292 ft | 17 kts | 75° |
| 2026-04-24 19:00 | 50.86175 | 7.15351 | 288 ft | 27 kts | 352° |
| 2026-04-24 19:01 | 50.86392 | 7.15257 | 287 ft | 40 kts | 335° |
| 2026-04-24 19:01 | 50.86724 | 7.14825 | 268 ft | 95 kts | 317° |
| 2026-04-24 19:01 | 50.87379 | 7.13874 | 244 ft | 157 kts | 317° |
| 2026-04-24 19:01 | 50.88259 | 7.12599 | 644 ft | 178 kts | 317° |
| 2026-04-24 19:02 | 50.88885 | 7.11715 | 1081 ft | 187 kts | 321° |
| 2026-04-24 19:02 | 50.90585 | 7.10590 | 1583 ft | 217 kts | 357° |
| 2026-04-24 19:02 | 50.92095 | 7.11173 | 1900 ft | 235 kts | 30° |
| 2026-04-24 19:02 | 50.93313 | 7.12943 | 2428 ft | 244 kts | 52° |
| 2026-04-24 19:03 | 50.94115 | 7.15367 | 3018 ft | 254 kts | 63° |
| 2026-04-24 19:03 | 50.94843 | 7.17959 | 3784 ft | 256 kts | 64° |
| 2026-04-24 19:03 | 50.95552 | 7.20525 | 4568 ft | 260 kts | 63° |
| 2026-04-24 19:03 | 50.96371 | 7.23140 | 5216 ft | 267 kts | 60° |
| 2026-04-24 19:04 | 50.97212 | 7.25746 | 6114 ft | 264 kts | 62° |
| 2026-04-24 19:04 | 50.98016 | 7.28399 | 6834 ft | 270 kts | 62° |
| 2026-04-24 19:04 | 50.98867 | 7.31065 | 7631 ft | 271 kts | 60° |
| 2026-04-24 19:04 | 50.99742 | 7.33746 | 8392 ft | 275 kts | 60° |
| 2026-04-24 19:05 | 51.00622 | 7.36489 | 9145 ft | 281 kts | 61° |
| 2026-04-24 19:05 | 51.01502 | 7.39284 | 9948 ft | 286 kts | 64° |
| 2026-04-24 19:05 | 51.01924 | 7.42398 | 10555 ft | 300 kts | 90° |
| 2026-04-24 19:05 | 51.01501 | 7.45751 | 10793 ft | 325 kts | 105° |
| 2026-04-24 19:06 | 51.00808 | 7.49251 | 11302 ft | 337 kts | 107° |
| 2026-04-24 19:06 | 51.00074 | 7.52836 | 11999 ft | 343 kts | 107° |
| 2026-04-24 19:06 | 50.99336 | 7.56462 | 12784 ft | 347 kts | 107° |
| 2026-04-24 19:06 | 50.98597 | 7.60142 | 13557 ft | 352 kts | 107° |
| 2026-04-24 19:07 | 50.97854 | 7.63884 | 14296 ft | 357 kts | 107° |
| 2026-04-24 19:07 | 50.97105 | 7.67684 | 15022 ft | 362 kts | 107° |
| 2026-04-24 19:07 | 50.96606 | 7.70219 | 15509 ft | 365 kts | 107° |
| 2026-04-24 19:07 | 50.95589 | 7.75377 | 16467 ft | 372 kts | 108° |
| 2026-04-24 19:08 | 50.94933 | 7.79373 | 17158 ft | 378 kts | 96° |
| 2026-04-24 19:08 | 50.95134 | 7.83539 | 17858 ft | 383 kts | 74° |
| 2026-04-24 19:08 | 50.96195 | 7.87408 | 18568 ft | 385 kts | 59° |
| 2026-04-24 19:08 | 50.97559 | 7.91103 | 19164 ft | 390 kts | 57° |
| 2026-04-24 19:09 | 50.98978 | 7.94828 | 19771 ft | 395 kts | 57° |
| 2026-04-24 19:09 | 51.00411 | 7.98597 | 20387 ft | 399 kts | 57° |
| 2026-04-24 19:09 | 51.01843 | 8.02416 | 21014 ft | 404 kts | 58° |
| 2026-04-24 19:09 | 51.03259 | 8.06237 | 21605 ft | 408 kts | 58° |
| 2026-04-24 19:10 | 51.04699 | 8.10158 | 22216 ft | 412 kts | 58° |
| 2026-04-24 19:10 | 51.06140 | 8.14102 | 22981 ft | 411 kts | 58° |
| 2026-04-24 19:10 | 51.07089 | 8.16704 | 23519 ft | 410 kts | 57° |
| 2026-04-24 19:10 | 51.08523 | 8.20637 | 24214 ft | 409 kts | 57° |
| 2026-04-24 19:11 | 51.09951 | 8.24560 | 24831 ft | 410 kts | 58° |
| 2026-04-24 19:11 | 51.11378 | 8.28492 | 25417 ft | 411 kts | 58° |
| 2026-04-24 19:11 | 51.12808 | 8.32448 | 26045 ft | 410 kts | 58° |
| 2026-04-24 19:11 | 51.14229 | 8.36382 | 26676 ft | 409 kts | 58° |
| 2026-04-24 19:12 | 51.15650 | 8.40320 | 27171 ft | 412 kts | 58° |
| 2026-04-24 19:12 | 51.17086 | 8.44303 | 27160 ft | 415 kts | 58° |
| 2026-04-24 19:12 | 51.18490 | 8.48319 | 27174 ft | 412 kts | 63° |
| 2026-04-24 19:12 | 51.19315 | 8.52632 | 27179 ft | 411 kts | 82° |
| 2026-04-24 19:13 | 51.19437 | 8.55653 | 27189 ft | 413 kts | 92° |
| 2026-04-24 19:13 | 51.18740 | 8.61667 | 27192 ft | 413 kts | 107° |
| 2026-04-24 19:13 | 51.17972 | 8.66108 | 27176 ft | 415 kts | 107° |
| 2026-04-24 19:13 | 51.17200 | 8.70496 | 27177 ft | 416 kts | 107° |
| 2026-04-24 19:14 | 51.16423 | 8.74936 | 27170 ft | 416 kts | 107° |
| 2026-04-24 19:14 | 51.15655 | 8.79374 | 27165 ft | 415 kts | 107° |
| 2026-04-24 19:14 | 51.14895 | 8.83815 | 27161 ft | 414 kts | 107° |
| 2026-04-24 19:14 | 51.14142 | 8.88235 | 27160 ft | 412 kts | 107° |
| 2026-04-24 19:15 | 51.13392 | 8.92653 | 27161 ft | 411 kts | 107° |
| 2026-04-24 19:15 | 51.12646 | 8.97047 | 27157 ft | 410 kts | 107° |
| 2026-04-24 19:15 | 51.11909 | 9.01382 | 27154 ft | 410 kts | 107° |
| 2026-04-24 19:15 | 51.11153 | 9.05815 | 27158 ft | 409 kts | 107° |
| 2026-04-24 19:16 | 51.09666 | 9.14506 | 27157 ft | 408 kts | 107° |
| 2026-04-24 19:16 | 51.08916 | 9.18869 | 27158 ft | 408 kts | 107° |
| 2026-04-24 19:16 | 51.08163 | 9.23241 | 27158 ft | 409 kts | 107° |
| 2026-04-24 19:17 | 51.07419 | 9.27549 | 27157 ft | 409 kts | 107° |
| 2026-04-24 19:17 | 51.06663 | 9.31912 | 27163 ft | 410 kts | 107° |
| 2026-04-24 19:17 | 51.05903 | 9.36290 | 27160 ft | 410 kts | 107° |
| 2026-04-24 19:17 | 51.05142 | 9.40667 | 27165 ft | 411 kts | 107° |
| 2026-04-24 19:18 | 51.04377 | 9.45051 | 27165 ft | 411 kts | 107° |
| 2026-04-24 19:18 | 51.03610 | 9.49436 | 27155 ft | 411 kts | 107° |
| 2026-04-24 19:18 | 51.02841 | 9.53823 | 27153 ft | 412 kts | 107° |
| 2026-04-24 19:18 | 51.02069 | 9.58215 | 27157 ft | 412 kts | 107° |
| 2026-04-24 19:19 | 51.01297 | 9.62601 | 27149 ft | 412 kts | 107° |
| 2026-04-24 19:19 | 51.00533 | 9.66927 | 27163 ft | 411 kts | 107° |
| 2026-04-24 19:19 | 50.99760 | 9.71297 | 27155 ft | 411 kts | 107° |
| 2026-04-24 19:19 | 50.98986 | 9.75662 | 27161 ft | 411 kts | 107° |
| 2026-04-24 19:20 | 50.98205 | 9.80055 | 27166 ft | 411 kts | 107° |
| 2026-04-24 19:20 | 50.97427 | 9.84426 | 27161 ft | 411 kts | 107° |
| 2026-04-24 19:20 | 50.96648 | 9.88785 | 27156 ft | 411 kts | 107° |
| 2026-04-24 19:20 | 50.96027 | 9.93227 | 27141 ft | 412 kts | 95° |
| 2026-04-24 19:21 | 50.96128 | 9.97698 | 27174 ft | 409 kts | 79° |
| 2026-04-24 19:21 | 50.96908 | 10.02012 | 27155 ft | 406 kts | 63° |
| 2026-04-24 19:21 | 50.98138 | 10.06049 | 27164 ft | 404 kts | 60° |
| 2026-04-24 19:21 | 50.99402 | 10.10048 | 27156 ft | 405 kts | 60° |
| 2026-04-24 19:22 | 51.00237 | 10.12704 | 27153 ft | 405 kts | 60° |
| 2026-04-24 19:22 | 51.01887 | 10.18043 | 27153 ft | 406 kts | 61° |
| 2026-04-24 19:22 | 51.03118 | 10.22098 | 27150 ft | 406 kts | 62° |
| 2026-04-24 19:22 | 51.04337 | 10.26145 | 27162 ft | 406 kts | 62° |
| 2026-04-24 19:23 | 51.05548 | 10.30214 | 27162 ft | 407 kts | 63° |
| 2026-04-24 19:23 | 51.06695 | 10.34348 | 27152 ft | 408 kts | 64° |
| 2026-04-24 19:23 | 51.07818 | 10.38496 | 27149 ft | 407 kts | 63° |
| 2026-04-24 19:23 | 51.08960 | 10.42563 | 27150 ft | 407 kts | 63° |
| 2026-04-24 19:24 | 51.10126 | 10.46668 | 27141 ft | 407 kts | 64° |
| 2026-04-24 19:24 | 51.11038 | 10.50953 | 26919 ft | 412 kts | 76° |
| 2026-04-24 19:24 | 51.11504 | 10.55445 | 26638 ft | 408 kts | 80° |
| 2026-04-24 19:24 | 51.11903 | 10.60153 | 26223 ft | 405 kts | 81° |
| 2026-04-24 19:25 | 51.12246 | 10.64362 | 25871 ft | 402 kts | 81° |
| 2026-04-24 19:25 | 51.12609 | 10.68764 | 25501 ft | 399 kts | 80° |
| 2026-04-24 19:25 | 51.12976 | 10.73088 | 25128 ft | 397 kts | 80° |
| 2026-04-24 19:25 | 51.13353 | 10.77431 | 24772 ft | 394 kts | 80° |
| 2026-04-24 19:26 | 51.13733 | 10.81747 | 24406 ft | 392 kts | 80° |
| 2026-04-24 19:26 | 51.14113 | 10.86036 | 24039 ft | 390 kts | 79° |
| 2026-04-24 19:26 | 51.14493 | 10.90309 | 23651 ft | 388 kts | 79° |
| 2026-04-24 19:26 | 51.14870 | 10.94557 | 23221 ft | 386 kts | 79° |
| 2026-04-24 19:27 | 51.15242 | 10.98779 | 22823 ft | 383 kts | 79° |
| 2026-04-24 19:27 | 51.15607 | 11.02925 | 22462 ft | 380 kts | 79° |
| 2026-04-24 19:27 | 51.15972 | 11.07099 | 22079 ft | 377 kts | 79° |
| 2026-04-24 19:27 | 51.16331 | 11.11210 | 21711 ft | 374 kts | 79° |
| 2026-04-24 19:28 | 51.16686 | 11.15299 | 21357 ft | 371 kts | 79° |
| 2026-04-24 19:28 | 51.17037 | 11.19359 | 20995 ft | 368 kts | 79° |
| 2026-04-24 19:28 | 51.17384 | 11.23391 | 20638 ft | 366 kts | 79° |
| 2026-04-24 19:28 | 51.17728 | 11.27402 | 20276 ft | 364 kts | 79° |
| 2026-04-24 19:29 | 51.18402 | 11.35303 | 19581 ft | 360 kts | 80° |
| 2026-04-24 19:29 | 51.19069 | 11.43200 | 18878 ft | 357 kts | 80° |
| 2026-04-24 19:30 | 51.19399 | 11.47123 | 18530 ft | 356 kts | 80° |
| 2026-04-24 19:30 | 51.19726 | 11.51032 | 18148 ft | 355 kts | 80° |
| 2026-04-24 19:30 | 51.20050 | 11.54924 | 17767 ft | 353 kts | 80° |
| 2026-04-24 19:30 | 51.20371 | 11.58802 | 17407 ft | 351 kts | 80° |
| 2026-04-24 19:31 | 51.20688 | 11.62637 | 17049 ft | 348 kts | 80° |
| 2026-04-24 19:31 | 51.21002 | 11.66455 | 16708 ft | 346 kts | 80° |
| 2026-04-24 19:31 | 51.21313 | 11.70251 | 16357 ft | 344 kts | 80° |
| 2026-04-24 19:31 | 51.21617 | 11.73978 | 16017 ft | 341 kts | 80° |
| 2026-04-24 19:32 | 51.21922 | 11.77725 | 15692 ft | 339 kts | 79° |
| 2026-04-24 19:32 | 51.22225 | 11.81455 | 15355 ft | 337 kts | 79° |
| 2026-04-24 19:32 | 51.22523 | 11.85148 | 15128 ft | 331 kts | 79° |
| 2026-04-24 19:32 | 51.22809 | 11.88713 | 14899 ft | 326 kts | 79° |
| 2026-04-24 19:33 | 51.23095 | 11.92291 | 14580 ft | 324 kts | 80° |
| 2026-04-24 19:33 | 51.23312 | 11.95863 | 14267 ft | 323 kts | 82° |
| 2026-04-24 19:33 | 51.23474 | 11.99430 | 13956 ft | 321 kts | 82° |
| 2026-04-24 19:33 | 51.23632 | 12.02985 | 13616 ft | 320 kts | 82° |
| 2026-04-24 19:34 | 51.23793 | 12.06525 | 13282 ft | 317 kts | 82° |
| 2026-04-24 19:34 | 51.23958 | 12.10016 | 12958 ft | 315 kts | 82° |
| 2026-04-24 19:34 | 51.24124 | 12.13490 | 12634 ft | 313 kts | 82° |
| 2026-04-24 19:34 | 51.24287 | 12.16902 | 12313 ft | 311 kts | 82° |
| 2026-04-24 19:35 | 51.24451 | 12.20351 | 11995 ft | 309 kts | 82° |
| 2026-04-24 19:35 | 51.24611 | 12.23767 | 11675 ft | 307 kts | 82° |
| 2026-04-24 19:35 | 51.24770 | 12.27159 | 11363 ft | 305 kts | 81° |
| 2026-04-24 19:35 | 51.24926 | 12.30518 | 11056 ft | 303 kts | 81° |
| 2026-04-24 19:36 | 51.25079 | 12.33860 | 10742 ft | 301 kts | 81° |
| 2026-04-24 19:36 | 51.25252 | 12.37140 | 10446 ft | 298 kts | 76° |
| 2026-04-24 19:36 | 51.25878 | 12.40218 | 10149 ft | 289 kts | 61° |
| 2026-04-24 19:36 | 51.26699 | 12.43111 | 9775 ft | 283 kts | 60° |
| 2026-04-24 19:37 | 51.27512 | 12.45978 | 9175 ft | 284 kts | 61° |
| 2026-04-24 19:37 | 51.28314 | 12.48860 | 8634 ft | 283 kts | 62° |
| 2026-04-24 19:37 | 51.29101 | 12.51739 | 8098 ft | 282 kts | 62° |
| 2026-04-24 19:37 | 51.29881 | 12.54624 | 7580 ft | 281 kts | 62° |
| 2026-04-24 19:38 | 51.30653 | 12.57487 | 7079 ft | 279 kts | 62° |
| 2026-04-24 19:38 | 51.31331 | 12.60396 | 6552 ft | 282 kts | 75° |
| 2026-04-24 19:38 | 51.31501 | 12.63530 | 6021 ft | 284 kts | 83° |
| 2026-04-24 19:38 | 51.31932 | 12.66515 | 5437 ft | 277 kts | 58° |
| 2026-04-24 19:39 | 51.33156 | 12.68734 | 5246 ft | 258 kts | 28° |
| 2026-04-24 19:39 | 51.34765 | 12.69621 | 5155 ft | 237 kts | 358° |
| 2026-04-24 19:39 | 51.36352 | 12.69399 | 5109 ft | 224 kts | 348° |
| 2026-04-24 19:39 | 51.37876 | 12.68994 | 4926 ft | 220 kts | 347° |
| 2026-04-24 19:40 | 51.39391 | 12.68577 | 4635 ft | 221 kts | 347° |
| 2026-04-24 19:40 | 51.40888 | 12.68165 | 4377 ft | 220 kts | 346° |
| 2026-04-24 19:40 | 51.42282 | 12.67282 | 4077 ft | 216 kts | 318° |
| 2026-04-24 19:40 | 51.43200 | 12.65439 | 3871 ft | 210 kts | 291° |
| 2026-04-24 19:41 | 51.43283 | 12.63183 | 3819 ft | 200 kts | 262° |
| 2026-04-24 19:41 | 51.43107 | 12.61047 | 3739 ft | 186 kts | 267° |
| 2026-04-24 19:41 | 51.43007 | 12.59045 | 3624 ft | 175 kts | 268° |
| 2026-04-24 19:41 | 51.42914 | 12.57117 | 3415 ft | 170 kts | 268° |
| 2026-04-24 19:42 | 51.42826 | 12.55311 | 3331 ft | 156 kts | 268° |
| 2026-04-24 19:42 | 51.42743 | 12.53621 | 3093 ft | 152 kts | 269° |
| 2026-04-24 19:42 | 51.42659 | 12.51889 | 3057 ft | 157 kts | 269° |
| 2026-04-24 19:42 | 51.42574 | 12.50139 | 3012 ft | 156 kts | 269° |
| 2026-04-24 19:43 | 51.42490 | 12.48421 | 3003 ft | 153 kts | 269° |
| 2026-04-24 19:43 | 51.42408 | 12.46728 | 2993 ft | 151 kts | 269° |
| 2026-04-24 19:43 | 51.42328 | 12.45110 | 2900 ft | 141 kts | 269° |
| 2026-04-24 19:43 | 51.42254 | 12.43568 | 2703 ft | 136 kts | 270° |
| 2026-04-24 19:44 | 51.42183 | 12.42109 | 2561 ft | 128 kts | 270° |
| 2026-04-24 19:44 | 51.42114 | 12.40666 | 2366 ft | 130 kts | 270° |
| 2026-04-24 19:44 | 51.42045 | 12.39232 | 2183 ft | 127 kts | 271° |
| 2026-04-24 19:44 | 51.41957 | 12.37843 | 2099 ft | 126 kts | 269° |
| 2026-04-24 19:45 | 51.41871 | 12.36413 | 1868 ft | 130 kts | 270° |
| 2026-04-24 19:45 | 51.41803 | 12.34978 | 1658 ft | 129 kts | 272° |
| 2026-04-24 19:45 | 51.41770 | 12.33555 | 1478 ft | 125 kts | 272° |
| 2026-04-24 19:45 | 51.41726 | 12.32161 | 1288 ft | 125 kts | 268° |
| 2026-04-24 19:46 | 51.41640 | 12.30761 | 1115 ft | 126 kts | 266° |
| 2026-04-24 19:46 | 51.41570 | 12.29347 | 1002 ft | 130 kts | 266° |
| 2026-04-24 19:46 | 51.41500 | 12.27882 | 844 ft | 132 kts | 269° |
| 2026-04-24 19:46 | 51.41439 | 12.26431 | 665 ft | 129 kts | 265° |
| 2026-04-24 19:47 | 51.41373 | 12.25037 | 511 ft | 125 kts | 265° |
| 2026-04-24 19:47 | 51.41316 | 12.23774 | 467 ft | 103 kts | 265° |
| 2026-04-24 19:47 | 51.41269 | 12.22874 | 460 ft | 59 kts | 261° |
| 2026-04-24 19:47 | 51.41172 | 12.22539 | 456 ft | 12 kts | 229° |
| 2026-04-24 19:48 | 51.41141 | 12.22518 | 456 ft | 5 kts | 183° |
| 2026-04-24 19:48 | 51.41121 | 12.22527 | 456 ft | 5 kts | 154° |
| 2026-04-24 19:48 | 51.41093 | 12.22694 | 458 ft | 8 kts | 85° |
| 2026-04-24 19:49 | 51.41101 | 12.22844 | 460 ft | 8 kts | 86° |
| 2026-04-24 19:49 | 51.41118 | 12.23207 | 463 ft | 14 kts | 85° |
| 2026-04-24 19:50 | 51.41029 | 12.23242 | 469 ft | 9 kts | 240° |
| 2026-04-24 19:50 | 51.40969 | 12.23188 | 468 ft | 11 kts | 177° |
| 2026-04-24 19:51 | 51.40927 | 12.23091 | 467 ft | 6 kts | 272° |
| 2026-04-24 19:51 | 51.40926 | 12.23074 | 467 ft | 0 kts | 266° |